Impacts METAR Board
IDs:

KPHX - Phoenix/Sky Harbor, AZ, US

Updated at: 1600 UTC 24 Sep 2018
Potential Impact None Slight Moderate High
Time 24/04Z 24/05Z 24/06Z 24/07Z 24/08Z 24/09Z 24/10Z 24/11Z 24/12Z 24/13Z 24/14Z 24/15Z 24/16Z
Temp93 94 88 86 85 85 83 83 83 83 83 84 87
Dewpt43 41 47 48 50 46 45 49 53 53 46 51 58
Altim29.72 29.73 29.73 29.73 29.75 29.75 29.75 29.76 29.77 29.78 29.80 29.82 29.83
VIS10 10 10 10 10 10 10 10 10 10 10 10 10
CIG-- -- -- -- -- 150 150 150 150 140 150 160 160
CoverSCTSCTSCTSCTSCTBKNBKNBKNBKNBKNBKNBKNBKN
FltCatVFRVFRVFRVFRVFRVFRVFRVFRVFRVFRVFRVFRVFR
WX--------------------------
WDir001009010070907010009010090
WSpd0 0 6 8 7 6 5 7 4 0 5 7 5
WGst-- -- -- -- -- -- -- -- -- -- -- -- --
Raw hourly METARs
KPHX 240351Z 00000KT 10SM FEW120 SCT200 34/06 A2972 RMK AO2 SLP043 T03390061
KPHX 240451Z 00000KT 10SM FEW120 SCT250 34/05 A2973 RMK AO2 SLP044 T03440050
KPHX 240551Z 10006KT 10SM FEW120 SCT250 31/08 A2973 RMK AO2 SLP046 T03110083 10383 20311 51007
KPHX 240651Z 09008KT 10SM FEW120 SCT250 30/09 A2973 RMK AO2 SLP047 T03000089 404000256
KPHX 240751Z 10007KT 10SM SCT180 29/10 A2975 RMK AO2 SLP051 T02940100
KPHX 240851Z 07006KT 10SM BKN150 29/08 A2975 RMK AO2 SLP052 T02940078 51005
KPHX 240951Z 09005KT 10SM BKN150 28/07 A2975 RMK AO2 SLP054 T02830072
KPHX 241051Z 07007KT 10SM BKN150 28/09 A2976 RMK AO2 SLP055 T02830094
KPHX 241151Z 10004KT 10SM BKN150 28/12 A2977 RMK AO2 SLP060 T02830117 10311 20278 53008
KPHX 241251Z 00000KT 10SM BKN140 BKN160 28/12 A2978 RMK AO2 SLP064 T02830117
KPHX 241351Z 09005KT 10SM SCT120 BKN150 28/08 A2980 RMK AO2 SLP070 T02830078
KPHX 241451Z 10007KT 10SM FEW120 BKN160 29/11 A2982 RMK AO2 SLP077 T02890106 53015
KPHX 241551Z 09005KT 10SM FEW120 BKN160 31/14 A2983 RMK AO2 SLP079 T03060144



Page loaded:  16:59 UTC  |   09:59 AM Pacific  |   10:59 AM Mountain  |   11:59 AM Central  |   12:59 PM Eastern

 

ADVISORIES

FORECASTS

FORECASTS

OBSERVATIONS

USER TOOLS

ABOUT US